V.b Algeciras — ECCR — position and weather

sailwx.info

Track history (hours):
 
Tides and Currents Weather Stations Pressure Air Temp Water Temp Dewpoint Dewpoint Depression Visibility Wind Speed Wind Dir Waves Ship Positions

V.b Algeciras

Last reported at 2015-Mar-29 05:33 UTC. Time now 2015-Mar-29 07:26 UTC.
Position N 36°08' W 005°26'.

Length 30 m; draft 5.1 m.

Type: Tug. MMSI: 224121250.

Date/timePositionNaut miles runAvg speedWind from/ knotsBaromVisibWave heightAir tempDewpointWater temp
2015-Mar-29 05:33N 36°08' W 005°26'0 0.0
2015-Mar-29 04:33N 36°08' W 005°26'0 0.0
2015-Mar-29 03:33N 36°08' W 005°26'0 0.0
2015-Mar-29 02:33N 36°08' W 005°26'0 0.0
2015-Mar-29 01:33N 36°08' W 005°26'0 0.0
2015-Mar-29 00:33N 36°08' W 005°26'0 0.0
2015-Mar-28 23:32N 36°08' W 005°26'0 0.0
2015-Mar-28 22:33N 36°08' W 005°26'0 0.0
2015-Mar-28 21:33N 36°08' W 005°26'0 0.0
2015-Mar-28 20:33N 36°08' W 005°26'0 0.0
2015-Mar-28 19:33N 36°08' W 005°26'1 1.0
2015-Mar-28 18:33N 36°09' W 005°26'0 0.2
2015-Mar-28 17:34N 36°09' W 005°26'1 1.0
2015-Mar-28 16:33N 36°08' W 005°26'0 0.3
2015-Mar-28 15:33N 36°08' W 005°26'1 1.1
2015-Mar-28 14:33N 36°09' W 005°25'1 0.2
2015-Mar-28 11:30N 36°09' W 005°26'0 0.0
2015-Mar-28 10:25N 36°09' W 005°26'1 0.2
2015-Mar-28 08:09N 36°09' W 005°26'1 1.1
2015-Mar-28 07:31N 36°08' W 005°26'0 0.0
2015-Mar-27 22:32N 36°08' W 005°26'0 0.0
2015-Mar-27 21:33N 36°08' W 005°26'0 0.0
2015-Mar-27 20:04N 36°08' W 005°26'0 0.0
2015-Mar-27 16:09N 36°08' W 005°26'0 0.0
2015-Mar-27 15:32N 36°08' W 005°26'0 0.0
2015-Mar-27 14:27N 36°08' W 005°26'0 0.0
2015-Mar-27 13:31N 36°08' W 005°26'1 0.9
2015-Mar-27 12:26N 36°09' W 005°26'1 0.9
2015-Mar-27 11:14N 36°08' W 005°25'2 1.2
2015-Mar-27 09:25N 36°10' W 005°24'2 0.8
2015-Mar-27 06:33N 36°08' W 005°26'0 0.3
2015-Mar-27 05:32N 36°08' W 005°26'0 0.0
2015-Mar-27 03:19N 36°08' W 005°26'1 0.7
2015-Mar-27 02:32N 36°08' W 005°25'1 0.8
2015-Mar-27 01:33N 36°08' W 005°25'0 0.2
2015-Mar-26 23:33N 36°08' W 005°26'0 0.0
2015-Mar-26 22:32N 36°08' W 005°26'0 0.0
2015-Mar-26 21:33N 36°08' W 005°26'0 0.0
2015-Mar-26 20:32N 36°08' W 005°26'0 0.0
2015-Mar-26 18:33N 36°08' W 005°26'1 0.8
2015-Mar-26 17:31N 36°09' W 005°26'0 0.0
2015-Mar-26 16:33N 36°09' W 005°26'0 0.0
2015-Mar-26 15:30N 36°09' W 005°26'1 0.7
2015-Mar-26 14:33N 36°08' W 005°25'0 0.1
2015-Mar-26 12:12N 36°08' W 005°26'0 0.0
2015-Mar-26 11:18N 36°08' W 005°26'0 0.0
2015-Mar-24 12:23N 36°08' W 005°25'0 0.1
2015-Mar-24 08:28N 36°08' W 005°25'0 0.3
2015-Mar-24 06:33N 36°08' W 005°25'0 0.1
2015-Mar-24 03:05N 36°08' W 005°26'0 0.0
2015-Mar-24 02:32N 36°08' W 005°26'0 0.0
2015-Mar-24 01:33N 36°08' W 005°26'0 0.0
2015-Mar-24 00:28N 36°08' W 005°26'0 0.0
2015-Mar-23 15:32N 36°08' W 005°26'0 0.3
2015-Mar-23 14:29N 36°08' W 005°26'0 0.4
2015-Mar-23 13:28N 36°08' W 005°26'1 0.1
2015-Mar-23 08:33N 36°08' W 005°25'0 0.1
2015-Mar-23 06:33N 36°08' W 005°25'0 0.0
2015-Mar-23 01:29N 36°08' W 005°25'1 0.2
2015-Mar-22 22:33N 36°08' W 005°25'0 0.4
2015-Mar-22 21:24N 36°08' W 005°26'0 0.2
2015-Mar-22 20:21N 36°08' W 005°26'0 0.2
2015-Mar-22 19:23N 36°08' W 005°26'0 0.0
2015-Mar-22 17:12N 36°08' W 005°26'3 4.0
2015-Mar-22 16:23N 36°10' W 005°23'3 2.7
2015-Mar-22 15:13N 36°08' W 005°26'0 0.2
2015-Mar-22 13:32N 36°08' W 005°25'0 0.1
2015-Mar-22 08:17N 36°08' W 005°26'2 3.2
2015-Mar-22 07:33N 36°10' W 005°25'2 2.5
2015-Mar-22 06:33N 36°08' W 005°26'0 0.3
2015-Mar-22 05:32N 36°08' W 005°25'0 0.1
2015-Mar-22 03:13N 36°08' W 005°26'0 0.0
2015-Mar-22 02:30N 36°08' W 005°26'0 0.0
2015-Mar-22 01:33N 36°08' W 005°26'0 0.0
2015-Mar-22 00:32N 36°08' W 005°26'0 0.0
2015-Mar-21 23:11N 36°08' W 005°26'0 0.0
2015-Mar-21 22:31N 36°08' W 005°26'0 0.0
2015-Mar-21 21:30N 36°08' W 005°26'0 0.0
2015-Mar-21 20:23N 36°08' W 005°26'0 0.0
2015-Mar-21 19:32N 36°08' W 005°26'0 0.0
2015-Mar-21 18:31N 36°08' W 005°26'0 0.0
2015-Mar-21 17:25N 36°08' W 005°26'0 0.0
2015-Mar-21 11:17N 36°08' W 005°26'0 0.0
2015-Mar-21 09:04N 36°08' W 005°26'0 0.0
2015-Mar-21 08:23N 36°08' W 005°26'0 0.1
2015-Mar-21 05:27N 36°08' W 005°26'0 0.0
2015-Mar-20 19:33N 36°08' W 005°26'2 0.3
2015-Mar-20 14:23N 36°09' W 005°24'1 1.4
2015-Mar-20 13:34N 36°09' W 005°26'1 0.2
2015-Mar-20 08:29N 36°08' W 005°26'0 0.1
2015-Mar-20 06:20N 36°08' W 005°26'0 0.0
2015-Mar-20 05:15N 36°08' W 005°26'0 0.0
2015-Mar-20 04:05N 36°08' W 005°26'0 0.0
2015-Mar-20 01:03N 36°08' W 005°26'0 0.0
2015-Mar-19 19:16N 36°08' W 005°26'1 1.0
2015-Mar-19 18:19N 36°09' W 005°26'1 0.9
2015-Mar-19 17:11N 36°08' W 005°26'1 1.2
2015-Mar-19 16:29N 36°08' W 005°25'1 0.3
2015-Mar-19 14:17N 36°08' W 005°26'0 0.1
2015-Mar-19 09:13N 36°08' W 005°26'0 0.4
2015-Mar-19 08:17N 36°09' W 005°26'1 1.7
2015-Mar-19 07:33N 36°07' W 005°25'  
Track history (hours):
 
Tides and Currents Weather Stations Pressure Air Temp Water Temp Dewpoint Dewpoint Depression Visibility Wind Speed Wind Dir Waves Ship Positions

V.b Algeciras

Last reported at 2015-Mar-29 05:33 UTC. Time now 2015-Mar-29 07:26 UTC.
Position N 36°08' W 005°26'.

Length 30 m; draft 5.1 m.

Type: Tug. MMSI: 224121250.

Date/timePositionNaut miles runAvg speedWind from/ knotsBaromVisibWave heightAir tempDewpointWater temp
2015-Mar-29 05:33N 36°08' W 005°26'0 0.0
2015-Mar-29 04:33N 36°08' W 005°26'0 0.0
2015-Mar-29 03:33N 36°08' W 005°26'0 0.0
2015-Mar-29 02:33N 36°08' W 005°26'0 0.0
2015-Mar-29 01:33N 36°08' W 005°26'0 0.0
2015-Mar-29 00:33N 36°08' W 005°26'0 0.0
2015-Mar-28 23:32N 36°08' W 005°26'0 0.0
2015-Mar-28 22:33N 36°08' W 005°26'0 0.0
2015-Mar-28 21:33N 36°08' W 005°26'0 0.0
2015-Mar-28 20:33N 36°08' W 005°26'0 0.0
2015-Mar-28 19:33N 36°08' W 005°26'1 1.0
2015-Mar-28 18:33N 36°09' W 005°26'0 0.2
2015-Mar-28 17:34N 36°09' W 005°26'1 1.0
2015-Mar-28 16:33N 36°08' W 005°26'0 0.3
2015-Mar-28 15:33N 36°08' W 005°26'1 1.1
2015-Mar-28 14:33N 36°09' W 005°25'1 0.2
2015-Mar-28 11:30N 36°09' W 005°26'0 0.0
2015-Mar-28 10:25N 36°09' W 005°26'1 0.2
2015-Mar-28 08:09N 36°09' W 005°26'1 1.1
2015-Mar-28 07:31N 36°08' W 005°26'0 0.0
2015-Mar-27 22:32N 36°08' W 005°26'0 0.0
2015-Mar-27 21:33N 36°08' W 005°26'0 0.0
2015-Mar-27 20:04N 36°08' W 005°26'0 0.0
2015-Mar-27 16:09N 36°08' W 005°26'0 0.0
2015-Mar-27 15:32N 36°08' W 005°26'0 0.0
2015-Mar-27 14:27N 36°08' W 005°26'0 0.0
2015-Mar-27 13:31N 36°08' W 005°26'1 0.9
2015-Mar-27 12:26N 36°09' W 005°26'1 0.9
2015-Mar-27 11:14N 36°08' W 005°25'2 1.2
2015-Mar-27 09:25N 36°10' W 005°24'2 0.8
2015-Mar-27 06:33N 36°08' W 005°26'0 0.3
2015-Mar-27 05:32N 36°08' W 005°26'0 0.0
2015-Mar-27 03:19N 36°08' W 005°26'1 0.7
2015-Mar-27 02:32N 36°08' W 005°25'1 0.8
2015-Mar-27 01:33N 36°08' W 005°25'0 0.2
2015-Mar-26 23:33N 36°08' W 005°26'0 0.0
2015-Mar-26 22:32N 36°08' W 005°26'0 0.0
2015-Mar-26 21:33N 36°08' W 005°26'0 0.0
2015-Mar-26 20:32N 36°08' W 005°26'0 0.0
2015-Mar-26 18:33N 36°08' W 005°26'1 0.8
2015-Mar-26 17:31N 36°09' W 005°26'0 0.0
2015-Mar-26 16:33N 36°09' W 005°26'0 0.0
2015-Mar-26 15:30N 36°09' W 005°26'1 0.7
2015-Mar-26 14:33N 36°08' W 005°25'0 0.1
2015-Mar-26 12:12N 36°08' W 005°26'0 0.0
2015-Mar-26 11:18N 36°08' W 005°26'0 0.0
2015-Mar-24 12:23N 36°08' W 005°25'0 0.1
2015-Mar-24 08:28N 36°08' W 005°25'0 0.3
2015-Mar-24 06:33N 36°08' W 005°25'0 0.1
2015-Mar-24 03:05N 36°08' W 005°26'0 0.0
2015-Mar-24 02:32N 36°08' W 005°26'0 0.0
2015-Mar-24 01:33N 36°08' W 005°26'0 0.0
2015-Mar-24 00:28N 36°08' W 005°26'0 0.0
2015-Mar-23 15:32N 36°08' W 005°26'0 0.3
2015-Mar-23 14:29N 36°08' W 005°26'0 0.4
2015-Mar-23 13:28N 36°08' W 005°26'1 0.1
2015-Mar-23 08:33N 36°08' W 005°25'0 0.1
2015-Mar-23 06:33N 36°08' W 005°25'0 0.0
2015-Mar-23 01:29N 36°08' W 005°25'1 0.2
2015-Mar-22 22:33N 36°08' W 005°25'0 0.4
2015-Mar-22 21:24N 36°08' W 005°26'0 0.2
2015-Mar-22 20:21N 36°08' W 005°26'0 0.2
2015-Mar-22 19:23N 36°08' W 005°26'0 0.0
2015-Mar-22 17:12N 36°08' W 005°26'3 4.0
2015-Mar-22 16:23N 36°10' W 005°23'3 2.7
2015-Mar-22 15:13N 36°08' W 005°26'0 0.2
2015-Mar-22 13:32N 36°08' W 005°25'0 0.1
2015-Mar-22 08:17N 36°08' W 005°26'2 3.2
2015-Mar-22 07:33N 36°10' W 005°25'2 2.5
2015-Mar-22 06:33N 36°08' W 005°26'0 0.3
2015-Mar-22 05:32N 36°08' W 005°25'0 0.1
2015-Mar-22 03:13N 36°08' W 005°26'0 0.0
2015-Mar-22 02:30N 36°08' W 005°26'0 0.0
2015-Mar-22 01:33N 36°08' W 005°26'0 0.0
2015-Mar-22 00:32N 36°08' W 005°26'0 0.0
2015-Mar-21 23:11N 36°08' W 005°26'0 0.0
2015-Mar-21 22:31N 36°08' W 005°26'0 0.0
2015-Mar-21 21:30N 36°08' W 005°26'0 0.0
2015-Mar-21 20:23N 36°08' W 005°26'0 0.0
2015-Mar-21 19:32N 36°08' W 005°26'0 0.0
2015-Mar-21 18:31N 36°08' W 005°26'0 0.0
2015-Mar-21 17:25N 36°08' W 005°26'0 0.0
2015-Mar-21 11:17N 36°08' W 005°26'0 0.0
2015-Mar-21 09:04N 36°08' W 005°26'0 0.0
2015-Mar-21 08:23N 36°08' W 005°26'0 0.1
2015-Mar-21 05:27N 36°08' W 005°26'0 0.0
2015-Mar-20 19:33N 36°08' W 005°26'2 0.3
2015-Mar-20 14:23N 36°09' W 005°24'1 1.4
2015-Mar-20 13:34N 36°09' W 005°26'1 0.2
2015-Mar-20 08:29N 36°08' W 005°26'0 0.1
2015-Mar-20 06:20N 36°08' W 005°26'0 0.0
2015-Mar-20 05:15N 36°08' W 005°26'0 0.0
2015-Mar-20 04:05N 36°08' W 005°26'0 0.0
2015-Mar-20 01:03N 36°08' W 005°26'0 0.0
2015-Mar-19 19:16N 36°08' W 005°26'1 1.0
2015-Mar-19 18:19N 36°09' W 005°26'1 0.9
2015-Mar-19 17:11N 36°08' W 005°26'1 1.2
2015-Mar-19 16:29N 36°08' W 005°25'1 0.3
2015-Mar-19 14:17N 36°08' W 005°26'0 0.1
2015-Mar-19 09:13N 36°08' W 005°26'0 0.4
2015-Mar-19 08:17N 36°09' W 005°26'1 1.7
2015-Mar-19 07:33N 36°07' W 005°25'  

Dump ship's entire track history